sensor_id;sensor_type;location;lat;lon;timestamp;pressure;altitude;pressure_sealevel;temperature;humidity
77631;BME280;66798;47.370;8.552;2023-05-08T06:05:07;97077.41;;;14.87;78.48
77631;BME280;66798;47.370;8.552;2023-05-08T06:07:32;97076.38;;;14.88;78.87
77631;BME280;66798;47.370;8.552;2023-05-08T06:09:58;97078.22;;;14.88;78.91
77631;BME280;66798;47.370;8.552;2023-05-08T06:12:24;97081.66;;;14.88;78.86
77631;BME280;66798;47.370;8.552;2023-05-08T06:14:54;97083.72;;;14.91;79.01
77631;BME280;66798;47.370;8.552;2023-05-08T06:17:19;97083.41;;;14.98;79.11
77631;BME280;66798;47.370;8.552;2023-05-08T06:19:46;97087.84;;;15.02;79.04
77631;BME280;66798;47.370;8.552;2023-05-08T06:22:18;97084.88;;;15.09;78.99
77631;BME280;66798;47.370;8.552;2023-05-08T06:24:43;97082.94;;;15.15;79.08
77631;BME280;66798;47.370;8.552;2023-05-08T06:27:10;97090.63;;;15.16;78.57
77631;BME280;66798;47.370;8.552;2023-05-08T06:29:36;97085.53;;;15.20;78.43
77631;BME280;66798;47.370;8.552;2023-05-08T06:32:01;97086.09;;;15.17;78.46
77631;BME280;66798;47.370;8.552;2023-05-08T06:34:27;97084.81;;;15.14;78.78
77631;BME280;66798;47.370;8.552;2023-05-08T06:36:52;97086.88;;;15.17;78.42
77631;BME280;66798;47.370;8.552;2023-05-08T06:39:17;97083.97;;;15.19;78.50
77631;BME280;66798;47.370;8.552;2023-05-08T06:41:46;97087.03;;;15.26;78.51
77631;BME280;66798;47.370;8.552;2023-05-08T06:44:12;97088.00;;;15.35;78.05
77631;BME280;66798;47.370;8.552;2023-05-08T06:46:38;97089.56;;;15.36;77.42
77631;BME280;66798;47.370;8.552;2023-05-08T06:49:04;97087.91;;;15.40;77.99
77631;BME280;66798;47.370;8.552;2023-05-08T06:51:29;97082.03;;;15.43;77.56
77631;BME280;66798;47.370;8.552;2023-05-08T06:53:55;97084.63;;;15.48;77.71
77631;BME280;66798;47.370;8.552;2023-05-08T06:56:21;97095.22;;;15.48;77.74
77631;BME280;66798;47.370;8.552;2023-05-08T06:58:46;97091.53;;;15.49;77.68
77631;BME280;66798;47.370;8.552;2023-05-08T07:01:12;97091.78;;;15.48;77.31
77631;BME280;66798;47.370;8.552;2023-05-08T07:03:39;97091.78;;;15.48;77.29
77631;BME280;66798;47.370;8.552;2023-05-08T07:06:06;97088.06;;;15.49;76.89
77631;BME280;66798;47.370;8.552;2023-05-08T07:08:33;97090.06;;;15.38;77.40
77631;BME280;66798;47.370;8.552;2023-05-08T07:10:58;97093.72;;;15.42;77.94
77631;BME280;66798;47.370;8.552;2023-05-08T07:13:24;97096.84;;;15.44;77.25
77631;BME280;66798;47.370;8.552;2023-05-08T07:15:50;97098.81;;;15.39;77.10
77631;BME280;66798;47.370;8.552;2023-05-08T07:18:15;97104.34;;;15.42;77.40
77631;BME280;66798;47.370;8.552;2023-05-08T07:20:41;97105.63;;;15.45;77.39
77631;BME280;66798;47.370;8.552;2023-05-08T07:23:06;97100.84;;;15.47;77.15
77631;BME280;66798;47.370;8.552;2023-05-08T07:25:32;97104.81;;;15.44;77.02
77631;BME280;66798;47.370;8.552;2023-05-08T07:27:57;97102.66;;;15.46;76.45
77631;BME280;66798;47.370;8.552;2023-05-08T07:30:22;97102.41;;;15.48;76.57
77631;BME280;66798;47.370;8.552;2023-05-08T07:32:48;97103.25;;;15.43;76.90
77631;BME280;66798;47.370;8.552;2023-05-08T07:35:13;97102.41;;;15.48;77.15
77631;BME280;66798;47.370;8.552;2023-05-08T07:37:39;97103.84;;;15.59;77.28
77631;BME280;66798;47.370;8.552;2023-05-08T07:40:05;97102.41;;;15.67;76.44
77631;BME280;66798;47.370;8.552;2023-05-08T07:42:37;97099.94;;;15.76;76.41
77631;BME280;66798;47.370;8.552;2023-05-08T07:45:03;97100.06;;;15.84;76.24
77631;BME280;66798;47.370;8.552;2023-05-08T07:47:28;97096.28;;;15.90;76.19
77631;BME280;66798;47.370;8.552;2023-05-08T07:49:54;97096.88;;;16.01;76.28
77631;BME280;66798;47.370;8.552;2023-05-08T07:52:19;97095.38;;;16.14;75.73
77631;BME280;66798;47.370;8.552;2023-05-08T07:54:45;97094.13;;;16.25;76.72
77631;BME280;66798;47.370;8.552;2023-05-08T07:57:10;97091.50;;;16.39;76.18
77631;BME280;66798;47.370;8.552;2023-05-08T07:59:36;97094.97;;;16.53;75.56
77631;BME280;66798;47.370;8.552;2023-05-08T08:02:01;97101.41;;;16.66;74.06
77631;BME280;66798;47.370;8.552;2023-05-08T08:04:27;97101.75;;;16.79;74.95
77631;BME280;66798;47.370;8.552;2023-05-08T08:06:52;97091.69;;;16.89;74.65
77631;BME280;66798;47.370;8.552;2023-05-08T08:09:17;97090.03;;;16.93;72.20
77631;BME280;66798;47.370;8.552;2023-05-08T08:11:43;97095.81;;;17.23;74.27
77631;BME280;66798;47.370;8.552;2023-05-08T08:14:08;97096.19;;;17.44;74.14
77631;BME280;66798;47.370;8.552;2023-05-08T08:16:34;97093.34;;;17.54;72.61
77631;BME280;66798;47.370;8.552;2023-05-08T08:18:59;97096.25;;;17.67;71.96
77631;BME280;66798;47.370;8.552;2023-05-08T08:21:24;97089.44;;;17.74;71.86
77631;BME280;66798;47.370;8.552;2023-05-08T08:23:51;97094.78;;;17.60;70.15
77631;BME280;66798;47.370;8.552;2023-05-08T08:26:16;97095.84;;;17.73;70.59
77631;BME280;66798;47.370;8.552;2023-05-08T08:28:42;97099.16;;;17.93;72.07
77631;BME280;66798;47.370;8.552;2023-05-08T08:31:07;97092.69;;;18.08;71.81
77631;BME280;66798;47.370;8.552;2023-05-08T08:33:33;97093.97;;;18.10;71.72
77631;BME280;66798;47.370;8.552;2023-05-08T08:35:58;97092.06;;;18.33;70.49
77631;BME280;66798;47.370;8.552;2023-05-08T08:38:24;97097.66;;;18.54;70.91
77631;BME280;66798;47.370;8.552;2023-05-08T08:40:49;97101.09;;;18.77;70.25
77631;BME280;66798;47.370;8.552;2023-05-08T08:43:15;97088.13;;;18.84;69.46
77631;BME280;66798;47.370;8.552;2023-05-08T08:45:40;97088.16;;;18.93;69.87
77631;BME280;66798;47.370;8.552;2023-05-08T08:48:09;97091.31;;;19.04;69.31
77631;BME280;66798;47.370;8.552;2023-05-08T08:50:42;97089.25;;;18.92;67.68
77631;BME280;66798;47.370;8.552;2023-05-08T08:53:21;97088.31;;;18.88;67.04
77631;BME280;66798;47.370;8.552;2023-05-08T08:55:51;97092.09;;;18.64;66.89
77631;BME280;66798;47.370;8.552;2023-05-08T08:58:20;97091.41;;;18.90;67.76
77631;BME280;66798;47.370;8.552;2023-05-08T09:00:48;97090.81;;;18.62;65.21
77631;BME280;66798;47.370;8.552;2023-05-08T09:03:14;97093.47;;;18.08;64.09
77631;BME280;66798;47.370;8.552;2023-05-08T09:05:40;97094.25;;;18.09;66.89
77631;BME280;66798;47.370;8.552;2023-05-08T09:08:05;97084.88;;;18.34;66.98
77631;BME280;66798;47.370;8.552;2023-05-08T09:10:34;97090.06;;;18.70;68.09
77631;BME280;66798;47.370;8.552;2023-05-08T09:13:02;97093.66;;;18.97;66.55
77631;BME280;66798;47.370;8.552;2023-05-08T09:15:28;97094.41;;;19.46;68.73
77631;BME280;66798;47.370;8.552;2023-05-08T09:17:53;97091.56;;;19.42;65.58
77631;BME280;66798;47.370;8.552;2023-05-08T09:20:19;97089.25;;;19.67;65.03
77631;BME280;66798;47.370;8.552;2023-05-08T09:22:45;97091.13;;;19.40;65.67
77631;BME280;66798;47.370;8.552;2023-05-08T09:25:10;97088.81;;;19.73;67.08
77631;BME280;66798;47.370;8.552;2023-05-08T09:27:36;97098.38;;;19.92;66.69
77631;BME280;66798;47.370;8.552;2023-05-08T09:32:32;97090.53;;;19.87;63.05
77631;BME280;66798;47.370;8.552;2023-05-08T09:34:58;97091.94;;;19.84;63.36
77631;BME280;66798;47.370;8.552;2023-05-08T09:37:25;97085.63;;;20.32;64.83
77631;BME280;66798;47.370;8.552;2023-05-08T09:39:51;97088.38;;;20.71;62.06
77631;BME280;66798;47.370;8.552;2023-05-08T09:42:17;97090.53;;;20.86;58.30
77631;BME280;66798;47.370;8.552;2023-05-08T09:44:46;97083.31;;;21.37;61.69
77631;BME280;66798;47.370;8.552;2023-05-08T09:47:14;97083.44;;;21.71;64.05
77631;BME280;66798;47.370;8.552;2023-05-08T09:50:03;97080.72;;;22.13;61.41
77631;BME280;66798;47.370;8.552;2023-05-08T09:52:31;97082.88;;;22.19;60.40
77631;BME280;66798;47.370;8.552;2023-05-08T09:57:30;97086.34;;;22.53;56.71
77631;BME280;66798;47.370;8.552;2023-05-08T10:00:10;97084.44;;;22.54;56.50
77631;BME280;66798;47.370;8.552;2023-05-08T10:02:38;97085.72;;;22.35;54.70
77631;BME280;66798;47.370;8.552;2023-05-08T10:05:26;97083.78;;;22.23;57.41
77631;BME280;66798;47.370;8.552;2023-05-08T10:07:52;97087.50;;;22.64;59.48
77631;BME280;66798;47.370;8.552;2023-05-08T10:10:26;97089.22;;;23.06;59.44
77631;BME280;66798;47.370;8.552;2023-05-08T10:12:54;97087.88;;;23.00;55.03
77631;BME280;66798;47.370;8.552;2023-05-08T10:15:23;97100.28;;;23.41;56.78
77631;BME280;66798;47.370;8.552;2023-05-08T10:18:04;97096.41;;;23.79;53.71
77631;BME280;66798;47.370;8.552;2023-05-08T10:20:31;97098.63;;;24.17;56.77
77631;BME280;66798;47.370;8.552;2023-05-08T10:22:58;97089.97;;;24.24;55.30
77631;BME280;66798;47.370;8.552;2023-05-08T10:25:25;97087.69;;;24.26;54.79
77631;BME280;66798;47.370;8.552;2023-05-08T10:28:32;97093.81;;;23.83;54.79
77631;BME280;66798;47.370;8.552;2023-05-08T10:31:02;97082.84;;;22.98;53.01
77631;BME280;66798;47.370;8.552;2023-05-08T10:33:30;97084.41;;;23.11;57.45
77631;BME280;66798;47.370;8.552;2023-05-08T10:35:59;97074.53;;;22.91;57.02
77631;BME280;66798;47.370;8.552;2023-05-08T10:38:25;97068.56;;;22.48;54.24
77631;BME280;66798;47.370;8.552;2023-05-08T10:40:52;97072.09;;;21.53;55.49
77631;BME280;66798;47.370;8.552;2023-05-08T10:43:23;97067.28;;;22.00;58.26
77631;BME280;66798;47.370;8.552;2023-05-08T10:45:50;97069.03;;;22.17;57.96
77631;BME280;66798;47.370;8.552;2023-05-08T10:49:08;97067.19;;;22.30;57.87
77631;BME280;66798;47.370;8.552;2023-05-08T10:57:07;97056.91;;;21.99;55.59
77631;BME280;66798;47.370;8.552;2023-05-08T10:59:37;97061.44;;;22.19;58.25
77631;BME280;66798;47.370;8.552;2023-05-08T11:02:07;97062.75;;;22.13;57.99
77631;BME280;66798;47.370;8.552;2023-05-08T11:04:33;97059.84;;;22.39;55.87
77631;BME280;66798;47.370;8.552;2023-05-08T11:06:58;97058.94;;;22.35;54.83
77631;BME280;66798;47.370;8.552;2023-05-08T11:09:45;97056.41;;;22.51;56.48
77631;BME280;66798;47.370;8.552;2023-05-08T11:12:26;97052.72;;;22.56;54.66
77631;BME280;66798;47.370;8.552;2023-05-08T11:15:05;97058.09;;;22.80;55.99
77631;BME280;66798;47.370;8.552;2023-05-08T11:17:32;97064.38;;;22.84;55.34
77631;BME280;66798;47.370;8.552;2023-05-08T11:20:05;97054.88;;;22.75;54.30
77631;BME280;66798;47.370;8.552;2023-05-08T11:22:34;97054.28;;;22.57;52.65
77631;BME280;66798;47.370;8.552;2023-05-08T11:25:05;97051.00;;;22.26;56.51
77631;BME280;66798;47.370;8.552;2023-05-08T11:27:35;97048.09;;;22.32;54.70
77631;BME280;66798;47.370;8.552;2023-05-08T11:30:20;97047.44;;;22.14;53.78
77631;BME280;66798;47.370;8.552;2023-05-08T11:35:44;97045.00;;;22.66;54.43
77631;BME280;66798;47.370;8.552;2023-05-08T12:59:52;97025.69;;;22.15;62.93
77631;BME280;66798;47.370;8.552;2023-05-08T13:02:26;97028.66;;;22.01;63.13
77631;BME280;66798;47.370;8.552;2023-05-08T13:04:53;97038.53;;;21.55;62.88
77631;BME280;66798;47.370;8.552;2023-05-08T13:07:20;97034.34;;;21.16;63.04
77631;BME280;66798;47.370;8.552;2023-05-08T13:10:00;97042.31;;;20.65;61.25
77631;BME280;66798;47.370;8.552;2023-05-08T13:12:29;97044.69;;;19.93;63.49
77631;BME280;66798;47.370;8.552;2023-05-08T13:14:54;97050.72;;;19.07;63.24
77631;BME280;66798;47.370;8.552;2023-05-08T13:17:20;97047.97;;;18.81;66.21
77631;BME280;66798;47.370;8.552;2023-05-08T13:19:46;97036.56;;;18.58;65.15
77631;BME280;66798;47.370;8.552;2023-05-08T13:22:11;97048.34;;;18.57;65.94
77631;BME280;66798;47.370;8.552;2023-05-08T13:24:36;97046.75;;;18.56;68.24
77631;BME280;66798;47.370;8.552;2023-05-08T13:27:02;97042.56;;;18.32;68.79
77631;BME280;66798;47.370;8.552;2023-05-08T13:29:28;97041.06;;;18.49;70.13
77631;BME280;66798;47.370;8.552;2023-05-08T13:31:53;97034.81;;;18.53;70.28
77631;BME280;66798;47.370;8.552;2023-05-08T13:34:18;97032.94;;;18.54;70.58
77631;BME280;66798;47.370;8.552;2023-05-08T13:36:44;97030.94;;;18.59;69.76
77631;BME280;66798;47.370;8.552;2023-05-08T13:39:09;97034.25;;;18.65;69.52
77631;BME280;66798;47.370;8.552;2023-05-08T13:41:35;97033.28;;;18.61;68.55
77631;BME280;66798;47.370;8.552;2023-05-08T13:44:00;97030.03;;;18.64;70.08
77631;BME280;66798;47.370;8.552;2023-05-08T13:46:26;97022.47;;;18.57;69.71
77631;BME280;66798;47.370;8.552;2023-05-08T13:48:51;97031.16;;;18.40;69.79
77631;BME280;66798;47.370;8.552;2023-05-08T13:51:17;97021.69;;;18.25;69.67
77631;BME280;66798;47.370;8.552;2023-05-08T13:53:42;97025.66;;;18.37;70.28
77631;BME280;66798;47.370;8.552;2023-05-08T13:56:08;97019.78;;;18.17;70.47
77631;BME280;66798;47.370;8.552;2023-05-08T13:58:33;97010.94;;;18.39;72.45
77631;BME280;66798;47.370;8.552;2023-05-08T14:00:58;97018.78;;;18.36;71.21
77631;BME280;66798;47.370;8.552;2023-05-08T14:03:24;97008.13;;;18.44;69.97
77631;BME280;66798;47.370;8.552;2023-05-08T14:05:50;97006.28;;;18.45;70.05
77631;BME280;66798;47.370;8.552;2023-05-08T14:08:15;97008.00;;;18.81;70.18
77631;BME280;66798;47.370;8.552;2023-05-08T14:10:41;97013.53;;;19.10;69.52
77631;BME280;66798;47.370;8.552;2023-05-08T14:13:06;97009.34;;;19.44;69.32
77631;BME280;66798;47.370;8.552;2023-05-08T14:15:32;97009.50;;;19.48;66.53
77631;BME280;66798;47.370;8.552;2023-05-08T14:17:58;96996.16;;;19.65;67.44
77631;BME280;66798;47.370;8.552;2023-05-08T14:20:24;97001.81;;;19.81;65.15
77631;BME280;66798;47.370;8.552;2023-05-08T14:22:49;97006.19;;;20.03;65.03
77631;BME280;66798;47.370;8.552;2023-05-08T14:25:15;97002.84;;;20.24;65.01
77631;BME280;66798;47.370;8.552;2023-05-08T14:27:41;97001.13;;;20.10;62.92
77631;BME280;66798;47.370;8.552;2023-05-08T14:30:07;97004.31;;;20.42;62.56
77631;BME280;66798;47.370;8.552;2023-05-08T14:32:32;97004.31;;;20.60;61.38
77631;BME280;66798;47.370;8.552;2023-05-08T14:34:58;97007.81;;;20.81;63.07
77631;BME280;66798;47.370;8.552;2023-05-08T14:37:23;97006.53;;;21.08;62.05
77631;BME280;66798;47.370;8.552;2023-05-08T14:39:49;97006.56;;;21.29;59.83
77631;BME280;66798;47.370;8.552;2023-05-08T14:42:18;97000.25;;;21.34;59.85
77631;BME280;66798;47.370;8.552;2023-05-08T14:44:44;97000.09;;;21.30;58.53
77631;BME280;66798;47.370;8.552;2023-05-08T14:47:09;97006.41;;;21.55;61.75
77631;BME280;66798;47.370;8.552;2023-05-08T14:49:35;97008.22;;;21.63;59.17
77631;BME280;66798;47.370;8.552;2023-05-08T14:52:00;97001.34;;;21.75;59.13
77631;BME280;66798;47.370;8.552;2023-05-08T14:54:26;96997.84;;;21.62;57.56
77631;BME280;66798;47.370;8.552;2023-05-08T14:56:51;96997.63;;;21.25;55.06
77631;BME280;66798;47.370;8.552;2023-05-08T14:59:16;97007.84;;;21.02;55.28
77631;BME280;66798;47.370;8.552;2023-05-08T15:01:42;97017.22;;;20.40;58.99
77631;BME280;66798;47.370;8.552;2023-05-08T15:04:09;97013.25;;;19.47;64.67
77631;BME280;66798;47.370;8.552;2023-05-08T15:06:35;97019.00;;;18.97;65.58
77631;BME280;66798;47.370;8.552;2023-05-08T15:09:01;97028.81;;;18.39;67.19
77631;BME280;66798;47.370;8.552;2023-05-08T15:11:27;97018.97;;;18.17;68.63
77631;BME280;66798;47.370;8.552;2023-05-08T15:13:52;97017.38;;;17.85;70.25
77631;BME280;66798;47.370;8.552;2023-05-08T15:16:18;97013.25;;;17.78;69.69
77631;BME280;66798;47.370;8.552;2023-05-08T15:18:43;97010.94;;;17.27;71.25
77631;BME280;66798;47.370;8.552;2023-05-08T15:21:08;97021.91;;;17.11;72.94
77631;BME280;66798;47.370;8.552;2023-05-08T15:23:34;97016.13;;;16.82;74.00
77631;BME280;66798;47.370;8.552;2023-05-08T15:26:01;97013.25;;;16.92;73.86
77631;BME280;66798;47.370;8.552;2023-05-08T15:28:26;97010.22;;;16.85;74.74
77631;BME280;66798;47.370;8.552;2023-05-08T15:30:52;97017.50;;;16.79;75.90
77631;BME280;66798;47.370;8.552;2023-05-08T15:33:17;97022.94;;;16.88;77.00
77631;BME280;66798;47.370;8.552;2023-05-08T15:35:43;97019.16;;;16.75;76.14
77631;BME280;66798;47.370;8.552;2023-05-08T15:38:08;97013.25;;;16.64;77.98
77631;BME280;66798;47.370;8.552;2023-05-08T15:40:36;97019.56;;;16.82;77.29
77631;BME280;66798;47.370;8.552;2023-05-08T15:43:02;97011.69;;;16.91;76.98
77631;BME280;66798;47.370;8.552;2023-05-08T15:45:28;97021.44;;;16.82;77.42
77631;BME280;66798;47.370;8.552;2023-05-08T15:47:53;97014.41;;;17.13;76.71
77631;BME280;66798;47.370;8.552;2023-05-08T15:50:19;97017.38;;;17.26;76.49
77631;BME280;66798;47.370;8.552;2023-05-08T15:52:46;97024.22;;;17.40;76.27
77631;BME280;66798;47.370;8.552;2023-05-08T15:55:11;97022.03;;;17.43;74.79
77631;BME280;66798;47.370;8.552;2023-05-08T15:57:37;97019.16;;;17.53;74.54
77631;BME280;66798;47.370;8.552;2023-05-08T16:00:03;97021.19;;;17.56;73.73
77631;BME280;66798;47.370;8.552;2023-05-08T16:02:28;97020.53;;;17.50;74.48
77631;BME280;66798;47.370;8.552;2023-05-08T16:04:54;97024.00;;;17.73;75.27
77631;BME280;66798;47.370;8.552;2023-05-08T16:07:19;97021.28;;;17.87;74.42
77631;BME280;66798;47.370;8.552;2023-05-08T16:09:45;97015.13;;;18.00;73.65
77631;BME280;66798;47.370;8.552;2023-05-08T16:12:10;97016.56;;;18.07;71.80
77631;BME280;66798;47.370;8.552;2023-05-08T16:14:36;97027.69;;;18.09;71.17
77631;BME280;66798;47.370;8.552;2023-05-08T16:17:02;97027.56;;;18.14;70.81
77631;BME280;66798;47.370;8.552;2023-05-08T16:19:27;97029.09;;;18.06;69.82
77631;BME280;66798;47.370;8.552;2023-05-08T16:21:53;97032.09;;;18.13;69.51
77631;BME280;66798;47.370;8.552;2023-05-08T16:24:19;97036.53;;;18.18;69.91
77631;BME280;66798;47.370;8.552;2023-05-08T16:26:45;97030.06;;;18.10;70.17
77631;BME280;66798;47.370;8.552;2023-05-08T16:29:10;97031.00;;;17.83;70.93
77631;BME280;66798;47.370;8.552;2023-05-08T16:31:37;97039.56;;;18.02;71.17
77631;BME280;66798;47.370;8.552;2023-05-08T16:34:02;97038.31;;;18.31;72.36
77631;BME280;66798;47.370;8.552;2023-05-08T16:36:28;97037.63;;;18.48;70.76
77631;BME280;66798;47.370;8.552;2023-05-08T16:38:53;97034.88;;;18.62;70.29
77631;BME280;66798;47.370;8.552;2023-05-08T16:41:19;97033.03;;;18.71;71.08
77631;BME280;66798;47.370;8.552;2023-05-08T16:43:45;97032.22;;;18.71;70.13
77631;BME280;66798;47.370;8.552;2023-05-08T16:46:10;97035.25;;;18.78;69.54
77631;BME280;66798;47.370;8.552;2023-05-08T16:48:36;97041.09;;;18.88;70.04
77631;BME280;66798;47.370;8.552;2023-05-08T16:51:01;97041.91;;;18.98;69.74
77631;BME280;66798;47.370;8.552;2023-05-08T16:53:27;97051.94;;;19.01;69.70
77631;BME280;66798;47.370;8.552;2023-05-08T16:55:53;97035.94;;;19.01;68.90
77631;BME280;66798;47.370;8.552;2023-05-08T16:58:18;97037.19;;;18.95;67.63
77631;BME280;66798;47.370;8.552;2023-05-08T17:00:45;97038.41;;;18.80;67.34
77631;BME280;66798;47.370;8.552;2023-05-08T17:03:11;97036.84;;;18.87;68.03
77631;BME280;66798;47.370;8.552;2023-05-08T17:05:36;97049.88;;;18.89;69.16
77631;BME280;66798;47.370;8.552;2023-05-08T17:08:02;97044.84;;;18.87;68.46
77631;BME280;66798;47.370;8.552;2023-05-08T17:10:27;97045.00;;;18.82;68.19
77631;BME280;66798;47.370;8.552;2023-05-08T17:12:53;97046.25;;;18.76;69.12
77631;BME280;66798;47.370;8.552;2023-05-08T17:15:18;97044.91;;;18.65;68.12
77631;BME280;66798;47.370;8.552;2023-05-08T17:17:44;97047.38;;;18.53;68.50
77631;BME280;66798;47.370;8.552;2023-05-08T17:20:12;97057.84;;;18.49;69.28
77631;BME280;66798;47.370;8.552;2023-05-08T17:22:38;97057.84;;;18.49;68.88
77631;BME280;66798;47.370;8.552;2023-05-08T17:25:03;97053.00;;;18.51;68.49
77631;BME280;66798;47.370;8.552;2023-05-08T17:27:29;97062.22;;;18.45;68.17
77631;BME280;66798;47.370;8.552;2023-05-08T17:29:54;97060.50;;;18.49;70.06
77631;BME280;66798;47.370;8.552;2023-05-08T17:32:20;97064.97;;;18.31;68.92
77631;BME280;66798;47.370;8.552;2023-05-08T17:34:45;97065.81;;;18.18;69.55
77631;BME280;66798;47.370;8.552;2023-05-08T17:37:11;97060.06;;;18.24;69.68
77631;BME280;66798;47.370;8.552;2023-05-08T17:39:36;97064.13;;;18.22;70.14
77631;BME280;66798;47.370;8.552;2023-05-08T17:42:02;97060.69;;;18.21;70.32
77631;BME280;66798;47.370;8.552;2023-05-08T17:44:27;97061.59;;;18.17;70.28
77631;BME280;66798;47.370;8.552;2023-05-08T17:46:53;97060.63;;;18.13;69.99
77631;BME280;66798;47.370;8.552;2023-05-08T17:49:18;97061.59;;;18.17;70.76
77631;BME280;66798;47.370;8.552;2023-05-08T17:51:43;97064.25;;;18.17;70.62
77631;BME280;66798;47.370;8.552;2023-05-08T17:54:09;97067.28;;;18.24;71.31
77631;BME280;66798;47.370;8.552;2023-05-08T17:56:35;97070.53;;;18.21;69.63
77631;BME280;66798;47.370;8.552;2023-05-08T17:59:00;97062.38;;;18.17;70.32
77631;BME280;66798;47.370;8.552;2023-05-08T18:01:26;97065.66;;;18.14;71.03
77631;BME280;66798;47.370;8.552;2023-05-08T18:03:53;97071.16;;;17.95;71.79
77631;BME280;66798;47.370;8.552;2023-05-08T18:06:19;97065.06;;;17.95;72.65
77631;BME280;66798;47.370;8.552;2023-05-08T18:08:46;97068.78;;;17.94;71.86
77631;BME280;66798;47.370;8.552;2023-05-08T18:11:18;97066.97;;;17.80;72.67
77631;BME280;66798;47.370;8.552;2023-05-08T18:13:44;97069.41;;;17.54;74.52
77631;BME280;66798;47.370;8.552;2023-05-08T18:16:09;97080.31;;;17.53;74.79
77631;BME280;66798;47.370;8.552;2023-05-08T18:18:35;97075.53;;;17.13;76.54
77631;BME280;66798;47.370;8.552;2023-05-08T18:21:00;97074.38;;;17.19;76.24
77631;BME280;66798;47.370;8.552;2023-05-08T18:23:26;97083.72;;;17.31;75.55
77631;BME280;66798;47.370;8.552;2023-05-08T18:25:51;97088.66;;;17.24;76.54
77631;BME280;66798;47.370;8.552;2023-05-08T18:28:17;97091.69;;;17.31;75.41
77631;BME280;66798;47.370;8.552;2023-05-08T18:30:42;97088.03;;;17.40;75.36
77631;BME280;66798;47.370;8.552;2023-05-08T18:33:08;97098.34;;;17.42;75.69
77631;BME280;66798;47.370;8.552;2023-05-08T18:35:33;97087.03;;;17.50;74.97
77631;BME280;66798;47.370;8.552;2023-05-08T18:37:59;97090.97;;;17.53;74.80
77631;BME280;66798;47.370;8.552;2023-05-08T18:40:24;97086.63;;;17.57;75.23
77631;BME280;66798;47.370;8.552;2023-05-08T18:42:50;97092.13;;;17.60;74.60
77631;BME280;66798;47.370;8.552;2023-05-08T18:45:15;97087.91;;;17.59;74.55
77631;BME280;66798;47.370;8.552;2023-05-08T18:47:41;97084.91;;;17.61;74.87
77631;BME280;66798;47.370;8.552;2023-05-08T18:50:06;97089.16;;;17.62;74.74
77631;BME280;66798;47.370;8.552;2023-05-08T18:52:32;97093.88;;;17.65;74.49
77631;BME280;66798;47.370;8.552;2023-05-08T18:54:58;97087.78;;;17.65;75.99
77631;BME280;66798;47.370;8.552;2023-05-08T18:57:23;97095.75;;;17.65;76.54
77631;BME280;66798;47.370;8.552;2023-05-08T18:59:49;97096.25;;;17.67;75.21
77631;BME280;66798;47.370;8.552;2023-05-08T19:02:15;97097.94;;;17.62;74.79
77631;BME280;66798;47.370;8.552;2023-05-08T19:04:40;97103.25;;;17.62;74.05
77631;BME280;66798;47.370;8.552;2023-05-08T19:07:05;97096.84;;;17.63;74.17
77631;BME280;66798;47.370;8.552;2023-05-08T19:09:31;97102.16;;;17.63;73.79
77631;BME280;66798;47.370;8.552;2023-05-08T19:11:58;97099.59;;;17.58;75.35
77631;BME280;66798;47.370;8.552;2023-05-08T19:14:23;97099.31;;;17.60;74.55
77631;BME280;66798;47.370;8.552;2023-05-08T19:16:50;97098.53;;;17.59;74.95
77631;BME280;66798;47.370;8.552;2023-05-08T19:19:15;97095.88;;;17.59;74.73
77631;BME280;66798;47.370;8.552;2023-05-08T19:21:41;97099.59;;;17.58;74.83
77631;BME280;66798;47.370;8.552;2023-05-08T19:24:07;97094.91;;;17.55;74.65
77631;BME280;66798;47.370;8.552;2023-05-08T19:26:32;97098.56;;;17.46;75.10
77631;BME280;66798;47.370;8.552;2023-05-08T19:28:57;97106.25;;;17.47;75.37
77631;BME280;66798;47.370;8.552;2023-05-08T19:31:23;97105.94;;;17.35;75.38
77631;BME280;66798;47.370;8.552;2023-05-08T19:33:48;97107.72;;;17.39;74.97
77631;BME280;66798;47.370;8.552;2023-05-08T19:36:14;97109.09;;;17.37;75.61
77631;BME280;66798;47.370;8.552;2023-05-08T19:38:39;97111.97;;;17.40;76.70
77631;BME280;66798;47.370;8.552;2023-05-08T19:41:06;97109.31;;;17.40;76.37
77631;BME280;66798;47.370;8.552;2023-05-08T19:43:31;97109.88;;;17.37;76.37
77631;BME280;66798;47.370;8.552;2023-05-08T19:45:57;97107.94;;;17.43;75.74
77631;BME280;66798;47.370;8.552;2023-05-08T19:48:22;97108.41;;;17.45;75.69
77631;BME280;66798;47.370;8.552;2023-05-08T19:50:48;97103.88;;;17.46;75.97
77631;BME280;66798;47.370;8.552;2023-05-08T19:53:13;97098.84;;;17.44;75.61
77631;BME280;66798;47.370;8.552;2023-05-08T19:55:39;97098.84;;;17.44;74.84
77631;BME280;66798;47.370;8.552;2023-05-08T19:58:04;97092.88;;;17.38;74.67
77631;BME280;66798;47.370;8.552;2023-05-08T20:00:31;97089.03;;;17.31;75.15
77631;BME280;66798;47.370;8.552;2023-05-08T20:02:56;97090.81;;;17.35;75.30
77631;BME280;66798;47.370;8.552;2023-05-08T20:05:22;97099.34;;;17.32;75.16
77631;BME280;66798;47.370;8.552;2023-05-08T20:07:47;97094.53;;;17.34;75.71
77631;BME280;66798;47.370;8.552;2023-05-08T20:10:13;97095.91;;;17.32;76.16
77631;BME280;66798;47.370;8.552;2023-05-08T20:12:38;97097.50;;;17.33;75.23
77631;BME280;66798;47.370;8.552;2023-05-08T20:15:04;97098.88;;;17.30;75.69
77631;BME280;66798;47.370;8.552;2023-05-08T20:17:29;97094.34;;;17.31;75.79
77631;BME280;66798;47.370;8.552;2023-05-08T20:19:55;97096.03;;;17.27;75.91
77631;BME280;66798;47.370;8.552;2023-05-08T20:22:20;97094.66;;;17.29;75.50
77631;BME280;66798;47.370;8.552;2023-05-08T20:24:46;97098.88;;;17.30;75.13
77631;BME280;66798;47.370;8.552;2023-05-08T20:27:11;97100.56;;;17.26;76.31
77631;BME280;66798;47.370;8.552;2023-05-08T20:29:37;97097.91;;;17.26;75.53
77631;BME280;66798;47.370;8.552;2023-05-08T20:32:02;97093.97;;;17.24;76.36
77631;BME280;66798;47.370;8.552;2023-05-08T20:34:28;97103.00;;;17.23;75.94
